createdAt,value
2022-08-02T00:02:19.639Z,100050.22
2022-08-02T00:05:40.447Z,100055.69
2022-08-02T00:09:01.481Z,100058.59
2022-08-02T00:12:23.452Z,100054.53
2022-08-02T00:15:44.397Z,100058.22
2022-08-02T00:19:05.437Z,100054.59
2022-08-02T00:22:26.418Z,100055.84
2022-08-02T00:25:55.352Z,100045.94
2022-08-02T00:29:16.437Z,100048.94
2022-08-02T00:32:37.467Z,100047.94
2022-08-02T00:35:58.472Z,100049.16
2022-08-02T00:39:35.340Z,100045.13
2022-08-02T00:42:56.423Z,100037.44
2022-08-02T00:46:17.454Z,100046.31
2022-08-02T00:49:38.537Z,100034.63
2022-08-02T00:52:59.424Z,100041.91
2022-08-02T00:56:20.424Z,100045.97
2022-08-02T00:59:41.408Z,100048.97
2022-08-02T01:02:55.413Z,100045.16
2022-08-02T01:06:16.509Z,100047.56
2022-08-02T01:09:37.463Z,100041.13
2022-08-02T01:12:58.443Z,100037.09
2022-08-02T01:16:27.431Z,100039.91
2022-08-02T01:19:56.474Z,100043.56
2022-08-02T01:23:53.433Z,100039.72
2022-08-02T01:27:39.463Z,100043.13
2022-08-02T01:31:04.462Z,100036.28
2022-08-02T01:34:41.487Z,100038.50
2022-08-02T01:38:12.452Z,100036.28
2022-08-02T01:41:36.492Z,100039.53
2022-08-02T01:44:59.469Z,100047.00
2022-08-02T01:48:22.430Z,100041.34
2022-08-02T01:52:03.467Z,100041.13
2022-08-02T01:55:35.358Z,100039.72
2022-08-02T01:59:09.446Z,100045.97
2022-08-02T02:02:32.468Z,100052.03
2022-08-02T02:05:54.490Z,100051.41
2022-08-02T02:09:16.475Z,100055.03
2022-08-02T02:12:38.472Z,100059.25
2022-08-02T02:16:20.458Z,100057.44
2022-08-02T02:19:42.452Z,100062.25
2022-08-02T02:23:04.103Z,100066.09
2022-08-02T02:26:31.200Z,100051.53
2022-08-02T02:29:57.506Z,100056.78
2022-08-02T02:33:22.671Z,100064.03
2022-08-02T02:36:48.503Z,100059.97
2022-08-02T02:40:10.449Z,100055.91
2022-08-02T02:43:32.460Z,100051.84
2022-08-02T02:46:54.459Z,100060.13
2022-08-02T02:50:16.573Z,100055.03
2022-08-02T02:54:33.739Z,100052.00
2022-08-02T02:57:20.557Z,100056.66
2022-08-02T03:01:00.543Z,100054.56
2022-08-02T03:04:24.475Z,100062.63
2022-08-02T03:07:47.491Z,100060.56
2022-08-02T03:11:10.476Z,100055.25
2022-08-02T03:14:31.474Z,100044.72
2022-08-02T03:17:57.481Z,100055.78
2022-08-02T03:21:20.512Z,100057.38
2022-08-02T03:24:41.495Z,100054.25
2022-08-02T03:28:02.555Z,100053.78
2022-08-02T03:31:23.476Z,100057.78
2022-08-02T03:34:44.499Z,100052.81
2022-08-02T03:38:09.466Z,100046.25
2022-08-02T03:41:32.509Z,100051.84
2022-08-02T03:44:53.467Z,100049.91
2022-08-02T03:48:30.534Z,100056.97
2022-08-02T03:51:55.499Z,100055.06
2022-08-02T03:55:16.495Z,100059.59
2022-08-02T03:58:38.542Z,100062.69
2022-08-02T04:01:59.487Z,100058.13
2022-08-02T04:05:24.547Z,100060.03
2022-08-02T04:08:46.506Z,100057.50
2022-08-02T04:12:07.712Z,100056.66
2022-08-02T04:15:29.492Z,100058.34
2022-08-02T04:18:56.462Z,100061.44
2022-08-02T04:22:19.511Z,100056.25
2022-08-02T04:25:41.581Z,100058.31
2022-08-02T04:29:04.556Z,100050.22
2022-08-02T04:32:25.508Z,100057.47
2022-08-02T04:35:46.539Z,100061.50
2022-08-02T04:39:07.534Z,100060.50
2022-08-02T04:42:36.493Z,100061.31
2022-08-02T04:45:58.540Z,100056.06
2022-08-02T04:49:20.554Z,100057.56
2022-08-02T04:52:45.677Z,100056.78
2022-08-02T04:56:06.538Z,100067.38
2022-08-02T04:59:27.548Z,100068.97
2022-08-02T05:02:48.490Z,100062.94
2022-08-02T05:06:19.462Z,100049.19
2022-08-02T05:09:40.571Z,100058.13
2022-08-02T05:13:01.593Z,100049.28
2022-08-02T05:16:22.512Z,100055.56
2022-08-02T05:23:13.513Z,100048.09
2022-08-02T05:26:34.522Z,100054.75
2022-08-02T05:29:57.104Z,100050.31
2022-08-02T05:33:17.588Z,100054.09
2022-08-02T05:36:38.493Z,100047.84
2022-08-02T05:40:03.547Z,100037.72
2022-08-02T05:43:28.508Z,100037.31
2022-08-02T05:46:49.515Z,100041.03
2022-08-02T05:50:10.532Z,100035.22
2022-08-02T05:54:18.501Z,100030.94
2022-08-02T05:58:04.579Z,100027.44
2022-08-02T06:01:27.535Z,100035.50
2022-08-02T06:05:12.602Z,100021.47
2022-08-02T06:08:36.549Z,100026.84
2022-08-02T06:12:02.250Z,100025.47
2022-08-02T06:15:27.522Z,100031.22
2022-08-02T06:18:49.540Z,100022.50
2022-08-02T06:22:36.111Z,100027.09
2022-08-02T06:26:00.619Z,100024.72
2022-08-02T06:29:23.280Z,100023.88
2022-08-02T06:32:45.627Z,100017.41
2022-08-02T06:36:24.558Z,100024.38
2022-08-02T06:39:49.530Z,100028.88
2022-08-02T06:43:26.556Z,100024.41
2022-08-02T06:47:12.011Z,100034.88
2022-08-02T06:50:29.604Z,100024.63
2022-08-02T06:53:51.546Z,100022.50
2022-08-02T06:57:12.606Z,100023.06
2022-08-02T07:00:33.545Z,100018.63
2022-08-02T07:03:54.539Z,100016.34
2022-08-02T07:07:17.577Z,100018.13
2022-08-02T07:10:38.554Z,100016.19
2022-08-02T07:13:59.539Z,100016.97
2022-08-02T07:17:20.541Z,100012.66
2022-08-02T07:20:41.558Z,100015.19
2022-08-02T07:24:02.555Z,100012.66
2022-08-02T07:27:23.543Z,100016.56
2022-08-02T07:30:39.599Z,100005.75
2022-08-02T07:34:00.558Z,100008.75
2022-08-02T07:37:22.359Z,100011.25
2022-08-02T07:40:57.569Z,100002.53
2022-08-02T07:44:18.558Z,100002.59
2022-08-02T07:47:39.563Z,100000.56
2022-08-02T07:51:00.601Z,100003.06
2022-08-02T07:54:21.580Z,100000.47
2022-08-02T07:57:46.211Z,99990.66
2022-08-02T08:01:07.644Z,99997.34
2022-08-02T08:04:24.748Z,99999.91
2022-08-02T08:07:38.603Z,100001.91
2022-08-02T08:11:00.556Z,100000.41
2022-08-02T08:14:21.630Z,100005.25
2022-08-02T08:17:42.577Z,99994.34
2022-08-02T08:21:04.197Z,99995.38
2022-08-02T08:24:25.594Z,99991.13
2022-08-02T08:27:46.656Z,99999.13
2022-08-02T08:31:07.567Z,99990.56
2022-08-02T08:34:30.602Z,99983.25
2022-08-02T08:37:52.608Z,99989.78
2022-08-02T08:41:13.585Z,99985.13
2022-08-02T08:44:34.566Z,99991.84
2022-08-02T08:47:56.618Z,99987.59
2022-08-02T08:51:51.550Z,99985.75
2022-08-02T08:55:13.634Z,99969.22
2022-08-02T08:58:34.581Z,99980.63
2022-08-02T09:01:58.695Z,99972.50
2022-08-02T09:05:37.599Z,99965.66
2022-08-02T09:08:58.590Z,99958.06
2022-08-02T09:12:33.620Z,99954.81
2022-08-02T09:15:56.639Z,99970.00
2022-08-02T09:19:36.630Z,99962.31
2022-08-02T09:22:57.639Z,99953.56
2022-08-02T09:26:21.590Z,99948.78
2022-08-02T09:30:05.251Z,99957.28
2022-08-02T09:33:23.629Z,99949.34
2022-08-02T09:36:54.928Z,99946.72
2022-08-02T09:40:17.600Z,99936.25
2022-08-02T09:44:05.451Z,99952.09
2022-08-02T09:47:30.935Z,99941.72
2022-08-02T09:50:52.599Z,99947.63
2022-08-02T09:54:16.604Z,99948.25
2022-08-02T09:57:40.747Z,99949.72
2022-08-02T10:01:11.680Z,99955.53
2022-08-02T10:04:52.543Z,99954.75
2022-08-02T10:08:46.677Z,99958.75
2022-08-02T10:12:07.644Z,99954.28
2022-08-02T10:15:29.650Z,99955.25
2022-08-02T10:18:50.626Z,99949.75
2022-08-02T10:22:30.633Z,99936.31
2022-08-02T10:25:52.602Z,99940.38
2022-08-02T10:29:13.589Z,99940.69
2022-08-02T10:32:42.659Z,99940.84
2022-08-02T10:36:07.985Z,99946.94
2022-08-02T10:39:28.685Z,99945.03
2022-08-02T10:43:01.698Z,99932.59
2022-08-02T10:46:47.649Z,99941.53
2022-08-02T10:50:10.705Z,99934.97
2022-08-02T10:53:44.633Z,99930.75
2022-08-02T10:57:07.662Z,99925.59
2022-08-02T11:00:37.669Z,99933.91
2022-08-02T11:03:58.641Z,99925.63
2022-08-02T11:07:27.624Z,99919.09
2022-08-02T11:10:44.659Z,99922.66
2022-08-02T11:14:20.610Z,99910.00
2022-08-02T11:17:41.637Z,99921.28
2022-08-02T11:21:35.632Z,99920.78
2022-08-02T11:24:56.707Z,99913.53
2022-08-02T11:28:25.429Z,99916.69
2022-08-02T11:31:54.696Z,99920.13
2022-08-02T11:35:16.619Z,99904.97
2022-08-02T11:38:37.705Z,99910.91
2022-08-02T11:42:12.840Z,99918.66
2022-08-02T11:45:39.645Z,99907.25
2022-08-02T11:49:00.710Z,99917.06
2022-08-02T11:52:22.657Z,99914.44
2022-08-02T11:56:03.782Z,99916.81
2022-08-02T11:59:18.665Z,99915.97
2022-08-02T12:02:44.855Z,99913.16
2022-08-02T12:06:10.964Z,99912.81
2022-08-02T12:09:41.354Z,99908.09
2022-08-02T12:13:11.654Z,99914.06
2022-08-02T12:16:50.660Z,99923.13
2022-08-02T12:20:11.645Z,99917.78
2022-08-02T12:23:32.663Z,99924.47
2022-08-02T12:27:00.649Z,99923.66
2022-08-02T12:30:27.511Z,99914.31
2022-08-02T12:34:00.700Z,99914.69
2022-08-02T12:37:23.652Z,99920.69
2022-08-02T12:40:39.696Z,99908.41
2022-08-02T12:44:00.748Z,99907.75
2022-08-02T12:47:22.683Z,99908.13
2022-08-02T12:50:46.679Z,99910.00
2022-08-02T12:54:08.685Z,99905.81
2022-08-02T12:57:31.726Z,99901.44
2022-08-02T13:00:52.664Z,99896.19
2022-08-02T13:04:16.351Z,99902.78
2022-08-02T13:07:37.742Z,99905.47
2022-08-02T13:10:58.642Z,99909.09
2022-08-02T13:14:19.721Z,99905.31
2022-08-02T13:17:40.672Z,99905.09
2022-08-02T13:21:01.720Z,99903.53
2022-08-02T13:24:41.310Z,99897.75
2022-08-02T13:28:04.734Z,99894.78
2022-08-02T13:31:36.280Z,99892.88
2022-08-02T13:34:57.662Z,99886.00
2022-08-02T13:38:21.925Z,99877.34
2022-08-02T13:41:45.677Z,99884.66
2022-08-02T13:45:12.867Z,99884.66
2022-08-02T13:48:34.690Z,99877.50
2022-08-02T13:51:55.698Z,99885.97
2022-08-02T13:55:16.762Z,99889.53
2022-08-02T13:58:37.711Z,99879.31
2022-08-02T14:01:58.968Z,99876.91
2022-08-02T14:05:19.753Z,99869.13
2022-08-02T14:09:00.765Z,99874.72
2022-08-02T14:12:56.456Z,99869.88
2022-08-02T14:16:17.688Z,99864.53
2022-08-02T14:19:38.706Z,99872.19
2022-08-02T14:23:00.662Z,99862.63
2022-08-02T14:26:26.775Z,99868.88
2022-08-02T14:29:48.715Z,99864.44
2022-08-02T14:33:10.687Z,99861.28
2022-08-02T14:36:31.701Z,99864.88
2022-08-02T14:40:00.783Z,99867.44
2022-08-02T14:43:41.672Z,99865.88
2022-08-02T14:47:02.801Z,99859.72
2022-08-02T14:50:24.677Z,99854.06
2022-08-02T14:53:49.683Z,99862.75
2022-08-02T14:57:23.752Z,99859.13
2022-08-02T15:00:44.698Z,99852.03
2022-08-02T15:04:05.716Z,99865.88
2022-08-02T15:07:26.733Z,99847.75
2022-08-02T15:10:47.740Z,99854.38
2022-08-02T15:14:08.766Z,99853.25
2022-08-02T15:17:29.735Z,99860.34
2022-08-02T15:21:18.954Z,99851.94
2022-08-02T15:24:46.737Z,99859.97
2022-08-02T15:28:07.720Z,99860.44
2022-08-02T15:31:33.630Z,99858.34
2022-08-02T15:34:54.733Z,99853.25
2022-08-02T15:38:15.722Z,99850.88
2022-08-02T15:41:38.747Z,99860.91
2022-08-02T15:44:59.731Z,99849.38
2022-08-02T15:48:20.800Z,99854.78
2022-08-02T15:51:41.697Z,99848.19
2022-08-02T15:55:07.214Z,99849.09
2022-08-02T15:58:28.738Z,99847.28
2022-08-02T16:01:49.785Z,99847.03
2022-08-02T16:05:13.957Z,99842.38
2022-08-02T16:08:34.724Z,99852.09
2022-08-02T16:11:55.760Z,99847.88
2022-08-02T16:15:17.725Z,99845.56
2022-08-02T16:18:38.739Z,99848.06
2022-08-02T16:21:59.731Z,99855.59
2022-08-02T16:25:20.722Z,99854.34
2022-08-02T16:28:41.728Z,99856.41
2022-08-02T16:32:02.731Z,99860.00
2022-08-02T16:35:23.744Z,99851.69
2022-08-02T16:38:44.784Z,99859.63
2022-08-02T16:42:05.773Z,99863.53
2022-08-02T16:45:26.713Z,99864.56
2022-08-02T16:48:51.078Z,99876.59
2022-08-02T16:52:11.713Z,99876.56
2022-08-02T16:55:32.739Z,99874.03
2022-08-02T16:58:53.719Z,99881.34
2022-08-02T17:02:18.398Z,99881.75
2022-08-02T17:05:56.158Z,99890.38
2022-08-02T17:10:02.550Z,99892.44
2022-08-02T17:13:11.528Z,99891.84
2022-08-02T17:16:37.840Z,99892.44
2022-08-02T17:20:00.803Z,99889.31
2022-08-02T17:24:06.283Z,99888.25
2022-08-02T17:27:08.902Z,99900.47
2022-08-02T17:30:34.395Z,99900.94
2022-08-02T17:33:54.832Z,99915.28
2022-08-02T17:37:15.776Z,99912.53
2022-08-02T17:40:38.758Z,99909.50
2022-08-02T17:43:59.777Z,99908.13
2022-08-02T17:47:22.766Z,99904.03
2022-08-02T17:50:52.823Z,99913.84
2022-08-02T17:54:13.772Z,99906.84
2022-08-02T18:01:24.149Z,99917.53
2022-08-02T18:04:44.758Z,99908.63
2022-08-02T18:08:06.745Z,99908.75
2022-08-02T18:11:52.512Z,99912.06
2022-08-02T18:15:14.604Z,99905.53
2022-08-02T18:18:35.735Z,99905.66
2022-08-02T18:21:57.801Z,99905.84
2022-08-02T18:25:37.252Z,99910.06
2022-08-02T18:28:59.759Z,99905.50
2022-08-02T18:33:58.840Z,99904.66
2022-08-02T18:36:01.748Z,99899.78
2022-08-02T18:39:22.859Z,99905.03
2022-08-02T18:42:43.783Z,99899.66
2022-08-02T18:46:16.252Z,99910.44
2022-08-02T18:49:46.553Z,99895.19
2022-08-02T18:53:08.794Z,99917.94
2022-08-02T18:56:29.777Z,99916.25
2022-08-02T18:59:55.783Z,99916.25
2022-08-02T19:03:19.157Z,99916.19
2022-08-02T19:06:39.814Z,99919.31
2022-08-02T19:10:02.753Z,99912.44
2022-08-02T19:13:25.775Z,99916.84
2022-08-02T19:16:46.777Z,99912.28
2022-08-02T19:20:08.805Z,99913.34
2022-08-02T19:23:30.814Z,99923.63
2022-08-02T19:27:04.759Z,99917.47
2022-08-02T19:30:34.817Z,99917.91
2022-08-02T19:34:07.274Z,99921.63
2022-08-02T19:37:37.040Z,99923.69
2022-08-02T19:40:59.799Z,99924.22
2022-08-02T19:44:29.288Z,99926.50
2022-08-02T19:47:54.316Z,99929.63
2022-08-02T19:51:15.816Z,99922.41
2022-08-02T19:54:59.669Z,99923.66
2022-08-02T19:58:38.819Z,99927.72
2022-08-02T20:02:05.799Z,99924.06
2022-08-02T20:05:27.284Z,99929.97
2022-08-02T20:08:52.831Z,99930.53
2022-08-02T20:12:14.133Z,99932.06
2022-08-02T20:15:56.235Z,99923.75
2022-08-02T20:19:21.764Z,99927.41
2022-08-02T20:23:32.150Z,99931.34
2022-08-02T20:26:47.988Z,99929.72
2022-08-02T20:30:09.822Z,99932.03
2022-08-02T20:33:32.798Z,99939.63
2022-08-02T20:36:54.113Z,99940.31
2022-08-02T20:43:48.862Z,99938.78
2022-08-02T20:47:09.850Z,99927.56
2022-08-02T20:50:49.345Z,99934.41
2022-08-02T20:54:11.818Z,99938.78
2022-08-02T20:57:48.934Z,99939.91
2022-08-02T21:01:13.881Z,99941.38
2022-08-02T21:04:34.804Z,99939.69
2022-08-02T21:07:56.865Z,99941.63
2022-08-02T21:11:18.835Z,99938.47
2022-08-02T21:14:39.832Z,99939.09
2022-08-02T21:18:06.864Z,99941.09
2022-08-02T21:21:26.848Z,99933.69
2022-08-02T21:24:48.862Z,99938.91
2022-08-02T21:28:17.419Z,99933.31
2022-08-02T21:31:38.894Z,99945.16
2022-08-02T21:35:02.851Z,99940.00
2022-08-02T21:38:35.554Z,99945.69
2022-08-02T21:41:57.904Z,99948.38
2022-08-02T21:45:19.986Z,99945.38
2022-08-02T21:48:40.843Z,99947.13
2022-08-02T21:52:02.803Z,99941.47
2022-08-02T21:55:24.358Z,99955.75
2022-08-02T21:59:14.841Z,99952.28
2022-08-02T22:02:36.841Z,99954.28
2022-08-02T22:05:58.831Z,99950.66
2022-08-02T22:09:42.293Z,99952.59
2022-08-02T22:13:00.808Z,99948.34
2022-08-02T22:16:21.823Z,99949.94
2022-08-02T22:19:53.816Z,99960.75
2022-08-02T22:26:56.865Z,99963.75
2022-08-02T22:30:17.868Z,99973.31
2022-08-02T22:34:01.284Z,99964.09
2022-08-02T22:38:17.506Z,99969.75
2022-08-02T22:41:04.885Z,99963.69
2022-08-02T22:44:29.828Z,99966.66
2022-08-02T22:47:51.410Z,99972.66
2022-08-02T22:51:13.884Z,99973.88
2022-08-02T22:54:34.836Z,99966.44
2022-08-02T22:57:57.173Z,99964.81
2022-08-02T22:58:41.285Z,99909.66
2022-08-02T22:58:55.965Z,99941.00
2022-08-02T22:59:10.715Z,99957.78
2022-08-02T23:01:17.921Z,99963.66
2022-08-02T23:04:38.905Z,99958.59
2022-08-02T23:07:59.874Z,99968.81
2022-08-02T23:11:20.875Z,99964.78
2022-08-02T23:14:41.867Z,99976.41
2022-08-02T23:18:21.841Z,99975.72
2022-08-02T23:22:01.801Z,99978.22
2022-08-02T23:25:23.988Z,99979.84
2022-08-02T23:28:37.860Z,99979.03
2022-08-02T23:31:59.930Z,99981.56
2022-08-02T23:35:22.951Z,99990.81
2022-08-02T23:38:43.896Z,99987.50
2022-08-02T23:42:04.902Z,99987.38
2022-08-02T23:45:25.850Z,99992.88
2022-08-02T23:48:55.883Z,100001.59
2022-08-02T23:52:17.250Z,99998.63
2022-08-02T23:55:37.858Z,100001.97
2022-08-02T23:58:59.904Z,100006.34
